Time;durP1;ratioP1;P1;durP2;ratioP2;P2;SDS_P1;SDS_P2;PMS_P1;PMS_P2;Temp;Humidity;BMP_temperature;BMP_pressure;BME280_temperature;BME280_humidity;BME280_pressure;Samples;Min_cycle;Max_cycle;Signal;HPM_P1;HPM_P2
2022/10/03 00:00:15;;;;;;;15.43;2.65;;;;;;;8.69;100.00;96616.69;1034656;28;20416;-68
2022/10/03 00:01:14;;;;;;;6.82;2.92;;;;;;;8.69;100.00;96613.28;1026657;28;20258;-66
2022/10/03 00:02:03;;;;;;;4.07;2.55;;;;;;;8.66;100.00;96611.09;1018668;29;21144;-69
2022/10/03 00:02:52;;;;;;;4.65;2.75;;;;;;;8.68;100.00;96615.06;1025124;28;20274;-66
2022/10/03 00:03:44;;;;;;;4.20;2.60;;;;;;;8.67;100.00;96612.69;1024252;28;20385;-67
2022/10/03 00:04:23;;;;;;;6.22;2.88;;;;;;;8.66;100.00;96617.13;1021845;28;20251;-65
2022/10/03 00:05:05;;;;;;;4.47;2.72;;;;;;;8.62;100.00;96613.38;1022487;28;20348;-67
2022/10/03 00:05:55;;;;;;;5.10;2.97;;;;;;;8.65;100.00;96615.56;1029138;28;20281;-67
2022/10/03 00:06:36;;;;;;;4.05;2.45;;;;;;;8.58;100.00;96609.63;1030503;28;20269;-69
2022/10/03 00:07:15;;;;;;;4.63;2.75;;;;;;;8.62;100.00;96616.00;1024350;28;20263;-66
2022/10/03 00:08:35;;;;;;;4.43;2.35;;;;;;;8.62;100.00;96610.78;1026510;28;20502;-68
2022/10/03 00:09:34;;;;;;;5.70;2.72;;;;;;;8.63;100.00;96616.81;1014381;29;20276;-66
2022/10/03 00:10:20;;;;;;;4.40;2.42;;;;;;;8.59;100.00;96610.44;1018874;29;20271;-67
2022/10/03 00:11:40;;;;;;;6.00;2.90;;;;;;;8.63;100.00;96622.81;1014259;29;20271;-67
2022/10/03 00:12:17;;;;;;;10.73;2.90;;;;;;;8.59;100.00;96621.69;1012010;29;20260;-67
2022/10/03 00:13:17;;;;;;;4.85;2.83;;;;;;;8.58;100.00;96619.28;1018287;29;20358;-69
2022/10/03 00:14:25;;;;;;;8.38;2.28;;;;;;;8.53;100.00;96621.81;1018312;29;20256;-68
2022/10/03 00:15:12;;;;;;;7.13;2.30;;;;;;;8.53;100.00;96627.81;1021712;28;20593;-68
2022/10/03 00:16:12;;;;;;;9.82;2.92;;;;;;;8.49;100.00;96631.94;1028702;28;20284;-67
2022/10/03 00:17:05;;;;;;;5.22;2.63;;;;;;;8.50;100.00;96628.28;1019017;29;20802;-67
2022/10/03 00:17:48;;;;;;;12.55;3.15;;;;;;;8.53;100.00;96633.06;1026476;28;20270;-67
2022/10/03 00:18:51;;;;;;;6.85;2.88;;;;;;;8.53;100.00;96633.06;1022892;28;20263;-67
2022/10/03 00:19:48;;;;;;;7.75;2.55;;;;;;;8.56;100.00;96634.44;1024566;28;20273;-67
2022/10/03 00:20:18;;;;;;;7.43;2.80;;;;;;;8.55;100.00;96636.25;1014503;29;20282;-67
2022/10/03 00:21:08;;;;;;;4.13;2.70;;;;;;;8.57;100.00;96634.19;1018546;29;20274;-68
2022/10/03 00:21:48;;;;;;;5.70;3.38;;;;;;;8.56;100.00;96637.84;1022531;29;20030;-67
2022/10/03 00:22:27;;;;;;;8.57;3.40;;;;;;;8.60;100.00;96631.13;1022510;29;20281;-68
2022/10/03 00:23:35;;;;;;;7.57;3.50;;;;;;;8.60;100.00;96635.56;1026436;28;20289;-66
2022/10/03 00:24:18;;;;;;;3.92;2.33;;;;;;;8.58;100.00;96632.38;1018411;29;20507;-66
2022/10/03 00:25:22;;;;;;;5.68;2.85;;;;;;;8.55;100.00;96635.44;1024800;28;20267;-69
2022/10/03 00:26:29;;;;;;;5.10;2.60;;;;;;;8.54;100.00;96639.88;1029575;28;20234;-67
2022/10/03 00:27:08;;;;;;;4.38;2.75;;;;;;;8.52;100.00;96635.88;1026355;28;20250;-67
2022/10/03 00:27:47;;;;;;;6.57;3.30;;;;;;;8.51;100.00;96635.09;1026733;28;20293;-69
2022/10/03 00:28:21;;;;;;;6.30;3.20;;;;;;;8.51;100.00;96635.09;1026507;28;20289;-66
2022/10/03 00:29:09;;;;;;;5.63;3.92;;;;;;;8.52;100.00;96635.88;1026459;28;20690;-66
2022/10/03 00:30:00;;;;;;;5.07;2.70;;;;;;;8.45;100.00;96636.00;1026351;28;20250;-66
2022/10/03 00:30:54;;;;;;;7.78;3.05;;;;;;;8.51;100.00;96640.31;1026653;28;20309;-67
2022/10/03 00:31:37;;;;;;;10.30;3.42;;;;;;;8.53;100.00;96642.72;1026776;28;20274;-68
2022/10/03 00:32:44;;;;;;;5.53;3.17;;;;;;;8.26;100.00;96602.09;1028075;28;20258;-67
2022/10/03 00:33:21;;;;;;;7.55;3.45;;;;;;;8.53;100.00;96645.34;1027492;28;20251;-66
2022/10/03 00:34:02;;;;;;;6.97;3.47;;;;;;;8.56;100.00;96640.44;1034685;28;20287;-67
2022/10/03 00:34:50;;;;;;;5.43;3.28;;;;;;;8.54;100.00;96639.88;1030798;28;20268;-67
2022/10/03 00:35:42;;;;;;;6.15;2.72;;;;;;;8.54;100.00;96642.50;1030082;28;20269;-65
2022/10/03 00:36:25;;;;;;;5.13;2.97;;;;;;;8.54;100.00;96645.09;1027688;28;20266;-67
2022/10/03 00:37:37;;;;;;;7.78;3.40;;;;;;;8.55;100.00;96640.66;1029925;28;20835;-67
2022/10/03 00:38:39;;;;;;;5.72;3.42;;;;;;;8.51;100.00;96653.41;1020950;29;20352;-67
2022/10/03 00:39:31;;;;;;;6.68;3.50;;;;;;;8.51;100.00;96648.16;1018110;29;20827;-67
2022/10/03 00:40:29;;;;;;;8.30;3.80;;;;;;;8.47;100.00;96645.22;1017045;29;20390;-67
2022/10/03 00:41:11;;;;;;;6.47;3.20;;;;;;;8.45;100.00;96643.84;1018537;29;20263;-67
2022/10/03 00:42:23;;;;;;;5.22;3.17;;;;;;;8.44;100.00;96642.25;1023529;28;20295;-66
2022/10/03 00:43:22;;;;;;;8.75;3.10;;;;;;;8.40;100.00;96638.50;1017209;29;20255;-66
2022/10/03 00:44:24;;;;;;;4.43;2.80;;;;;;;8.36;100.00;96643.38;1010988;29;20794;-67
2022/10/03 00:45:07;;;;;;;7.57;3.10;;;;;;;8.35;100.00;96636.53;1015318;29;20617;-69
2022/10/03 00:45:58;;;;;;;9.07;3.38;;;;;;;8.33;100.00;96643.03;1017596;29;20774;-67
2022/10/03 00:47:00;;;;;;;6.65;2.78;;;;;;;8.26;100.00;96633.44;1018661;29;20359;-68
2022/10/03 00:47:39;;;;;;;4.80;3.00;;;;;;;8.23;100.00;96638.34;1014182;29;20756;-68
2022/10/03 00:48:47;;;;;;;6.68;3.20;;;;;;;8.19;100.00;96643.22;1014435;29;20260;-66
2022/10/03 00:49:20;;;;;;;3.80;2.67;;;;;;;8.16;100.00;96638.44;1026754;28;20267;-67
2022/10/03 00:50:05;;;;;;;5.85;2.97;;;;;;;8.15;100.00;96642.09;1025229;28;20621;-68
2022/10/03 00:50:44;;;;;;;7.68;2.95;;;;;;;8.15;100.00;96639.47;1026691;28;20262;-67
2022/10/03 00:51:21;;;;;;;7.95;3.40;;;;;;;8.15;100.00;96636.84;1018324;29;20271;-67
2022/10/03 00:52:13;;;;;;;5.63;3.40;;;;;;;8.15;100.00;96642.09;1028462;28;21187;-67
2022/10/03 00:52:59;;;;;;;5.40;2.97;;;;;;;8.13;100.00;96643.31;1026609;28;20294;-67
2022/10/03 00:53:54;;;;;;;7.60;3.38;;;;;;;8.10;100.00;96641.94;1033372;28;20267;-68
2022/10/03 00:54:36;;;;;;;4.97;3.22;;;;;;;8.10;100.00;96641.94;1026488;28;20277;-67
2022/10/03 00:55:22;;;;;;;7.65;3.42;;;;;;;8.10;100.00;96641.94;1021933;28;20251;-67
2022/10/03 00:55:54;;;;;;;6.05;2.90;;;;;;;8.09;100.00;96644.81;1026127;28;20305;-67
2022/10/03 00:56:49;;;;;;;9.02;3.92;;;;;;;8.07;100.00;96645.00;1030460;28;21211;-68
2022/10/03 00:57:55;;;;;;;7.13;3.65;;;;;;;8.04;100.00;96650.69;1026569;28;20883;-67
2022/10/03 00:58:50;;;;;;;6.13;4.00;;;;;;;8.04;100.00;96646.25;1017830;29;20267;-67
2022/10/03 00:59:41;;;;;;;9.73;3.42;;;;;;;8.00;100.00;96646.94;1034290;28;20264;-67
2022/10/03 01:00:30;;;;;;;10.13;3.90;;;;;;;8.00;100.00;96644.31;1034122;28;20339;-67
2022/10/03 01:01:31;;;;;;;10.23;3.78;;;;;;;8.04;100.00;96651.47;1026282;28;20965;-66
2022/10/03 01:02:24;;;;;;;7.82;3.83;;;;;;;8.03;100.00;96654.31;1029998;28;20850;-68
2022/10/03 01:03:00;;;;;;;7.78;3.17;;;;;;;7.99;100.00;96648.75;1025418;28;20027;-66
2022/10/03 01:03:56;;;;;;;7.25;3.53;;;;;;;8.00;100.00;96652.16;1014346;29;20287;-67
2022/10/03 01:04:36;;;;;;;8.15;3.92;;;;;;;8.01;100.00;96651.13;1021708;28;20775;-67
2022/10/03 01:05:38;;;;;;;5.15;3.17;;;;;;;8.00;100.00;96642.50;1027006;28;20325;-68
2022/10/03 01:06:33;;;;;;;9.77;3.70;;;;;;;8.03;100.00;96647.28;1026088;28;20062;-66
2022/10/03 01:07:37;;;;;;;8.25;3.50;;;;;;;8.06;100.00;96648.66;1030042;28;20274;-68
2022/10/03 01:08:32;;;;;;;6.47;3.33;;;;;;;8.05;100.00;96647.06;1034253;28;20272;-67
2022/10/03 01:09:15;;;;;;;6.68;3.55;;;;;;;8.01;100.00;96646.72;1038099;28;20597;-67
2022/10/03 01:10:04;;;;;;;11.13;4.35;;;;;;;8.01;100.00;96648.50;1034841;28;20261;-68
2022/10/03 01:10:41;;;;;;;8.75;4.47;;;;;;;7.96;100.00;96646.56;1030055;28;20257;-67
2022/10/03 01:11:29;;;;;;;6.82;3.63;;;;;;;7.95;100.00;96646.81;1030576;28;20269;-67
2022/10/03 01:12:21;;;;;;;9.13;3.80;;;;;;;7.90;100.00;96644.06;1026552;28;20258;-67
2022/10/03 01:13:10;;;;;;;7.65;3.65;;;;;;;7.90;100.00;96651.91;1026389;28;20262;-66
2022/10/03 01:13:59;;;;;;;6.70;3.53;;;;;;;7.84;100.00;96637.91;1026606;28;20250;-67
2022/10/03 01:14:38;;;;;;;10.15;4.18;;;;;;;7.78;100.00;96630.97;1025872;28;20344;-68
2022/10/03 01:15:52;;;;;;;7.22;3.45;;;;;;;7.85;100.00;96646.56;1022554;29;20670;-66
2022/10/03 01:16:41;;;;;;;7.88;3.70;;;;;;;7.89;100.00;96658.16;1018141;29;20302;-67
2022/10/03 01:17:42;;;;;;;9.27;4.00;;;;;;;7.88;100.00;96657.34;1026071;28;20808;-67
2022/10/03 01:18:22;;;;;;;7.90;3.28;;;;;;;7.86;100.00;96658.59;1022293;29;20262;-67
2022/10/03 01:19:31;;;;;;;8.55;3.70;;;;;;;7.87;100.00;96663.56;1018744;28;20353;-68
2022/10/03 01:20:10;;;;;;;6.03;3.30;;;;;;;7.72;100.00;96642.31;1022332;29;20300;-67
2022/10/03 01:20:52;;;;;;;7.25;4.18;;;;;;;7.83;100.00;96664.25;1024847;28;20263;-69
2022/10/03 01:21:28;;;;;;;10.88;4.07;;;;;;;7.89;100.00;96671.22;1025239;28;20337;-68
2022/10/03 01:22:16;;;;;;;11.57;3.92;;;;;;;8.00;100.00;96667.84;1022595;29;20281;-67
2022/10/03 01:22:53;;;;;;;9.52;4.40;;;;;;;8.04;100.00;96666.34;1026985;28;20265;-67
2022/10/03 01:23:56;;;;;;;10.10;4.45;;;;;;;8.11;100.00;96669.66;1030278;28;20281;-67
2022/10/03 01:24:52;;;;;;;8.23;3.90;;;;;;;8.16;100.00;96672.44;1025565;28;20278;-68
2022/10/03 01:25:40;;;;;;;8.65;4.43;;;;;;;8.20;100.00;96670.16;1021362;29;20266;-67
2022/10/03 01:26:32;;;;;;;12.00;4.68;;;;;;;8.21;100.00;96667.31;1023690;28;20353;-68
2022/10/03 01:27:06;;;;;;;7.55;3.72;;;;;;;8.23;100.00;96665.28;1026035;28;20255;-66
2022/10/03 01:30:21;;;;;;;7.55;3.97;;;;;;;8.25;100.00;96673.69;1030635;28;20262;-67
2022/10/03 01:30:27;;;;;;;11.10;4.05;;;;;;;8.33;100.00;96669.97;1030826;28;20257;-67
2022/10/03 01:31:01;;;;;;;7.80;4.32;;;;;;;8.34;100.00;96668.94;1030425;28;20836;-67
2022/10/03 01:31:39;;;;;;;6.75;3.92;;;;;;;8.34;100.00;96665.53;1028993;28;20288;-67
2022/10/03 01:32:35;;;;;;;11.63;5.05;;;;;;;8.41;100.00;96668.84;1030407;28;20284;-67
2022/10/03 01:33:10;;;;;;;11.57;4.95;;;;;;;8.43;100.00;96672.06;1026234;28;20279;-67
2022/10/03 01:33:53;;;;;;;9.57;4.28;;;;;;;8.45;100.00;96670.81;1026397;28;20266;-68
2022/10/03 01:34:48;;;;;;;10.85;4.10;;;;;;;8.53;100.00;96684.59;1026570;28;20362;-67
2022/10/03 01:35:55;;;;;;;10.93;4.20;;;;;;;8.57;100.00;96681.28;1023974;28;20290;-69
2022/10/03 01:36:38;;;;;;;7.90;4.22;;;;;;;8.57;100.00;96670.81;1029830;28;20269;-68
2022/10/03 01:37:14;;;;;;;7.70;4.35;;;;;;;8.60;100.00;96678.22;1030277;28;20265;-68
2022/10/03 01:38:20;;;;;;;9.45;3.90;;;;;;;8.66;100.00;96682.53;1022370;29;20365;-69
2022/10/03 01:39:00;;;;;;;10.43;4.40;;;;;;;8.67;100.00;96681.50;1015556;29;21101;-68
2022/10/03 01:39:36;;;;;;;9.27;4.25;;;;;;;8.65;100.00;96678.34;1016603;29;20376;-68
2022/10/03 01:40:12;;;;;;;10.23;4.53;;;;;;;8.69;100.00;96684.72;1018132;29;20035;-69
2022/10/03 01:40:45;;;;;;;9.48;4.25;;;;;;;8.71;100.00;96680.03;1025014;28;20404;-69
2022/10/03 01:41:32;;;;;;;10.07;4.85;;;;;;;8.71;100.00;96682.66;1034398;28;20284;-66
2022/10/03 01:42:49;;;;;;;8.98;4.68;;;;;;;8.74;100.00;96684.81;1027037;28;20983;-66
2022/10/03 01:43:30;;;;;;;16.83;4.18;;;;;;;8.76;100.00;96686.41;1029818;28;20282;-67
2022/10/03 01:44:18;;;;;;;13.90;4.30;;;;;;;8.74;100.00;96681.41;1029798;28;20293;-67
2022/10/03 01:45:06;;;;;;;10.88;4.18;;;;;;;8.76;100.00;96683.81;1025748;28;20039;-67
2022/10/03 01:46:02;;;;;;;8.88;4.25;;;;;;;8.78;100.00;96692.22;1026175;28;20270;-68
2022/10/03 01:46:46;;;;;;;9.73;4.43;;;;;;;8.79;100.00;96691.22;1032998;28;20335;-67
2022/10/03 01:47:26;;;;;;;9.63;4.45;;;;;;;8.80;100.00;96690.16;1032759;28;20293;-67
2022/10/03 01:48:07;;;;;;;10.07;4.82;;;;;;;8.80;100.00;96684.94;1030350;28;20835;-68
2022/10/03 01:48:56;;;;;;;8.52;4.10;;;;;;;8.79;100.00;96689.38;1018169;29;20032;-68
2022/10/03 01:49:52;;;;;;;6.82;3.80;;;;;;;8.80;100.00;96690.97;1014432;29;20099;-67
2022/10/03 01:50:33;;;;;;;9.68;4.30;;;;;;;8.82;100.00;96698.56;1017778;28;20280;-67
2022/10/03 01:51:27;;;;;;;9.88;3.85;;;;;;;8.81;100.00;96694.38;1027087;28;20382;-67
2022/10/03 01:52:05;;;;;;;13.88;3.75;;;;;;;8.80;100.00;96687.56;1026501;28;20265;-68
2022/10/03 01:53:00;;;;;;;8.77;4.13;;;;;;;8.82;100.00;96698.56;1030421;28;20316;-68
2022/10/03 01:53:45;;;;;;;8.30;3.63;;;;;;;8.81;100.00;96697.78;1034219;28;20267;-68
2022/10/03 01:54:23;;;;;;;8.27;4.15;;;;;;;8.77;100.00;96686.19;1033119;28;20277;-67
2022/10/03 01:55:18;;;;;;;9.15;4.68;;;;;;;8.83;100.00;96694.94;1034447;28;20348;-68
2022/10/03 01:55:56;;;;;;;7.43;4.20;;;;;;;8.79;100.00;96693.81;1033873;28;20245;-67
2022/10/03 01:56:33;;;;;;;8.05;4.32;;;;;;;8.79;100.00;96693.81;1033830;28;20352;-67
2022/10/03 01:57:10;;;;;;;9.02;4.25;;;;;;;8.69;100.00;96687.31;1032947;28;20315;-68
2022/10/03 01:57:54;;;;;;;8.73;4.07;;;;;;;8.78;100.00;96697.44;1030490;28;20817;-66
2022/10/03 01:58:30;;;;;;;8.20;4.50;;;;;;;8.75;100.00;96693.44;1029783;28;20281;-66
2022/10/03 01:59:23;;;;;;;8.38;4.60;;;;;;;8.76;100.00;96702.13;1030354;28;20261;-67
2022/10/03 01:59:59;;;;;;;10.07;3.88;;;;;;;8.76;100.00;96699.50;1026130;28;20258;-67
2022/10/03 02:00:35;;;;;;;9.40;4.70;;;;;;;8.74;100.00;96697.91;1025072;28;20022;-68
2022/10/03 02:01:14;;;;;;;7.68;4.05;;;;;;;8.75;100.00;96698.69;1025914;28;20335;-66
2022/10/03 02:02:02;;;;;;;7.22;3.75;;;;;;;8.74;100.00;96697.09;1018409;29;20271;-67
2022/10/03 02:03:07;;;;;;;7.93;4.07;;;;;;;8.74;100.00;96697.09;1018014;29;20366;-67
2022/10/03 02:03:50;;;;;;;10.45;3.85;;;;;;;8.70;100.00;96693.34;1017641;29;20900;-67
2022/10/03 02:04:26;;;;;;;7.95;4.10;;;;;;;8.68;100.00;96692.78;1018050;29;20441;-67
2022/10/03 02:05:11;;;;;;;7.57;3.92;;;;;;;8.66;100.00;96694.84;1018136;29;20791;-67
2022/10/03 02:06:12;;;;;;;7.40;4.35;;;;;;;8.65;100.00;96696.66;1033475;28;20279;-67
2022/10/03 02:06:52;;;;;;;10.18;3.15;;;;;;;8.64;100.00;96691.63;1034090;28;20791;-67
2022/10/03 02:07:42;;;;;;;11.65;4.50;;;;;;;8.63;100.00;96690.06;1034296;28;20038;-69
2022/10/03 02:08:42;;;;;;;7.97;3.08;;;;;;;8.63;100.00;96692.66;1034108;28;20021;-68
2022/10/03 02:09:33;;;;;;;7.50;3.38;;;;;;;8.63;100.00;96696.06;1020970;29;20130;-69
2022/10/03 02:10:26;;;;;;;6.57;3.15;;;;;;;8.64;100.00;96695.03;1022132;29;21154;-67
2022/10/03 02:11:02;;;;;;;8.30;3.85;;;;;;;8.67;100.00;96701.66;1023537;28;20675;-67
2022/10/03 02:11:39;;;;;;;7.47;3.58;;;;;;;8.65;100.00;96688.00;1030290;28;20369;-67
2022/10/03 02:12:34;;;;;;;7.43;4.57;;;;;;;8.68;100.00;96696.19;1024495;28;20270;-66
2022/10/03 02:13:17;;;;;;;11.48;3.70;;;;;;;8.69;100.00;96689.94;1025417;28;20793;-66
2022/10/03 02:13:52;;;;;;;7.60;3.85;;;;;;;8.68;100.00;96685.72;1020166;28;20282;-66
2022/10/03 02:14:50;;;;;;;7.22;4.00;;;;;;;8.72;100.00;96692.09;1018152;29;20283;-66
2022/10/03 02:15:46;;;;;;;8.68;3.78;;;;;;;8.77;100.00;96693.25;1022040;28;20671;-69
2022/10/03 02:16:24;;;;;;;8.15;4.40;;;;;;;8.78;100.00;96694.81;1020789;29;20279;-68
2022/10/03 02:17:01;;;;;;;6.57;3.58;;;;;;;8.80;100.00;96695.41;1021210;29;20747;-67
2022/10/03 02:17:41;;;;;;;10.00;3.67;;;;;;;8.80;100.00;96700.63;1026126;28;20266;-69
2022/10/03 02:18:26;;;;;;;7.05;3.63;;;;;;;8.77;100.00;96680.94;1030149;28;20348;-67
2022/10/03 02:19:20;;;;;;;6.20;3.75;;;;;;;8.82;100.00;96698.56;1034340;28;20116;-68
2022/10/03 02:20:12;;;;;;;8.05;3.72;;;;;;;8.83;100.00;96689.72;1027024;28;20270;-67
2022/10/03 02:20:49;;;;;;;10.05;3.75;;;;;;;8.84;100.00;96693.91;1027791;28;20784;-67
2022/10/03 02:21:32;;;;;;;8.93;3.72;;;;;;;8.84;100.00;96689.47;1028305;28;20273;-67
2022/10/03 02:22:27;;;;;;;7.32;3.20;;;;;;;8.80;100.00;96690.97;1025860;28;20262;-68
2022/10/03 02:22:57;;;;;;;5.68;3.70;;;;;;;8.86;100.00;96691.88;1032231;28;20281;-67
2022/10/03 02:23:31;;;;;;;8.27;4.88;;;;;;;8.89;100.00;96700.06;1030085;28;20800;-67
2022/10/03 02:24:10;;;;;;;11.05;4.85;;;;;;;8.90;100.00;96698.25;1030199;28;20041;-67
2022/10/03 02:25:17;;;;;;;7.13;4.25;;;;;;;8.89;100.00;96700.06;1031986;28;20303;-68
2022/10/03 02:26:07;;;;;;;10.70;3.97;;;;;;;8.90;100.00;96698.25;1036824;28;20263;-68
2022/10/03 02:27:05;;;;;;;13.52;4.28;;;;;;;8.90;100.00;96695.63;1038412;28;20260;-66
2022/10/03 02:27:58;;;;;;;9.23;4.32;;;;;;;8.90;100.00;96695.63;1034113;28;20061;-67
2022/10/03 02:29:03;;;;;;;8.90;4.22;;;;;;;8.90;100.00;96700.88;1030099;28;20678;-68
2022/10/03 02:30:01;;;;;;;7.60;3.47;;;;;;;8.93;100.00;96689.94;1026446;28;20759;-67
2022/10/03 02:31:05;;;;;;;10.65;3.65;;;;;;;8.93;100.00;96688.13;1030200;28;20558;-68
2022/10/03 02:31:44;;;;;;;11.52;4.15;;;;;;;8.91;100.00;96689.38;1025047;28;20701;-67
2022/10/03 02:32:40;;;;;;;12.38;4.28;;;;;;;8.87;100.00;96690.84;1025923;28;20626;-66
2022/10/03 02:33:17;;;;;;;8.55;3.90;;;;;;;8.86;100.00;96694.50;1013978;29;20772;-67
2022/10/03 02:34:15;;;;;;;9.57;4.03;;;;;;;8.86;100.00;96695.28;1004771;29;20300;-67
2022/10/03 02:35:09;;;;;;;9.57;3.78;;;;;;;8.86;100.00;96689.28;1020003;28;20290;-66
2022/10/03 02:36:08;;;;;;;10.10;3.67;;;;;;;8.88;100.00;96703.69;1028243;28;20284;-67
2022/10/03 02:37:15;;;;;;;6.43;3.13;;;;;;;8.92;100.00;96696.19;1022119;29;20383;-68
2022/10/03 02:37:53;;;;;;;8.80;4.05;;;;;;;8.93;100.00;96705.66;1022184;29;20263;-67
2022/10/03 02:38:38;;;;;;;9.50;4.68;;;;;;;8.92;100.00;96696.19;1019225;29;20279;-68
2022/10/03 02:39:27;;;;;;;6.75;3.40;;;;;;;8.93;100.00;96703.03;1018359;29;20632;-67
2022/10/03 02:40:19;;;;;;;7.07;3.35;;;;;;;8.88;100.00;96698.47;1022497;28;20801;-67
2022/10/03 02:41:02;;;;;;;6.38;3.58;;;;;;;8.85;100.00;96703.34;1026363;28;20246;-67
2022/10/03 02:42:03;;;;;;;7.70;4.18;;;;;;;8.86;100.00;96694.50;1030510;28;20312;-68
2022/10/03 02:42:39;;;;;;;9.70;3.55;;;;;;;8.84;100.00;96699.16;1025427;28;20346;-67
2022/10/03 02:43:19;;;;;;;8.60;3.80;;;;;;;8.88;100.00;96695.06;1026434;28;20030;-67
2022/10/03 02:44:08;;;;;;;8.27;3.90;;;;;;;8.88;100.00;96700.28;1030244;28;20265;-67
2022/10/03 02:44:39;;;;;;;7.80;3.95;;;;;;;8.89;100.00;96696.66;1030470;28;20018;-67
2022/10/03 02:45:35;;;;;;;7.28;3.65;;;;;;;8.90;100.00;96693.81;1025906;28;20270;-67
2022/10/03 02:46:27;;;;;;;6.15;3.65;;;;;;;8.90;100.00;96700.88;1017733;29;20370;-67
2022/10/03 02:47:07;;;;;;;7.20;3.47;;;;;;;8.91;100.00;96702.44;1023759;28;20264;-68
2022/10/03 02:47:37;;;;;;;11.02;3.97;;;;;;;8.89;100.00;96699.28;1026225;28;20268;-67
2022/10/03 02:48:37;;;;;;;6.70;3.58;;;;;;;8.94;100.00;96702.00;1026278;28;20845;-68
2022/10/03 02:49:41;;;;;;;7.80;4.00;;;;;;;8.92;100.00;96698.81;1018043;29;20031;-67
2022/10/03 02:51:09;;;;;;;8.77;3.70;;;;;;;8.94;100.00;96702.78;1030104;28;20613;-67
2022/10/03 02:51:57;;;;;;;6.72;3.17;;;;;;;8.90;100.00;96700.88;1021919;29;20366;-68
2022/10/03 02:52:33;;;;;;;5.00;2.95;;;;;;;8.91;100.00;96707.69;1014071;29;20423;-68
2022/10/03 02:53:32;;;;;;;8.30;3.65;;;;;;;8.91;100.00;96708.47;1014300;29;20334;-68
2022/10/03 02:54:24;;;;;;;7.93;3.83;;;;;;;8.95;100.00;96706.19;1014703;29;20263;-67
2022/10/03 02:55:22;;;;;;;6.68;4.43;;;;;;;8.89;100.00;96707.13;1020761;29;20306;-68
2022/10/03 02:55:55;;;;;;;6.85;3.95;;;;;;;8.88;100.00;96708.13;1013980;29;20970;-67
2022/10/03 02:56:29;;;;;;;7.72;4.40;;;;;;;8.89;100.00;96707.94;1010229;29;20268;-67
2022/10/03 02:57:11;;;;;;;6.68;3.92;;;;;;;8.90;100.00;96706.09;1013919;29;20367;-69
2022/10/03 02:58:00;;;;;;;13.10;4.20;;;;;;;8.85;100.00;96713.81;1030285;28;20269;-68
2022/10/03 02:58:49;;;;;;;7.47;4.38;;;;;;;8.83;100.00;96715.88;1029971;28;20448;-67
2022/10/03 02:59:41;;;;;;;6.85;4.15;;;;;;;8.81;100.00;96712.69;1033577;28;20336;-67
2022/10/03 03:00:18;;;;;;;6.53;3.67;;;;;;;8.75;100.00;96706.53;1031303;28;20276;-67
2022/10/03 03:00:57;;;;;;;7.15;4.47;;;;;;;8.80;100.00;96714.53;1025995;28;20266;-68
2022/10/03 03:01:46;;;;;;;46.10;6.43;;;;;;;8.81;100.00;96712.69;1026149;28;20309;-68
2022/10/03 03:02:46;;;;;;;23.33;5.65;;;;;;;8.82;100.00;96724.75;1037768;28;20264;-67
2022/10/03 03:03:54;;;;;;;8.27;3.85;;;;;;;8.81;100.00;96723.16;1036292;28;20286;-67
2022/10/03 03:04:46;;;;;;;8.40;3.40;;;;;;;8.80;100.00;96726.81;1038403;28;20661;-68
2022/10/03 03:05:32;;;;;;;8.07;4.13;;;;;;;8.79;100.00;96725.22;1038438;28;20334;-67
2022/10/03 03:06:24;;;;;;;17.70;4.90;;;;;;;8.80;100.00;96732.03;1037595;28;20344;-67
2022/10/03 03:07:37;;;;;;;6.72;3.70;;;;;;;8.81;100.00;96721.34;1028455;28;20256;-68
2022/10/03 03:08:44;;;;;;;12.40;4.30;;;;;;;8.79;100.00;96727.84;1030326;28;20699;-67
2022/10/03 03:09:28;;;;;;;6.45;3.72;;;;;;;8.76;100.00;96721.22;1022207;29;20657;-67
2022/10/03 03:10:20;;;;;;;6.35;3.58;;;;;;;8.73;100.00;96722.47;1014675;29;20280;-68
2022/10/03 03:11:27;;;;;;;6.55;4.05;;;;;;;8.73;100.00;96727.72;1018681;29;20264;-67
2022/10/03 03:12:39;;;;;;;11.75;3.95;;;;;;;8.71;100.00;96711.44;1026016;28;20335;-67
2022/10/03 03:13:36;;;;;;;8.30;4.18;;;;;;;8.69;100.00;96723.97;1021887;29;20298;-67
2022/10/03 03:14:44;;;;;;;11.43;3.83;;;;;;;8.67;100.00;96723.38;1033474;28;20272;-66
2022/10/03 03:15:32;;;;;;;7.15;3.40;;;;;;;8.68;100.00;96724.16;1033866;28;20257;-68
2022/10/03 03:16:24;;;;;;;9.77;4.20;;;;;;;8.69;100.00;96729.19;1030276;28;20307;-67
2022/10/03 03:17:07;;;;;;;8.13;3.92;;;;;;;8.67;100.00;96727.81;1029213;28;20284;-67
2022/10/03 03:18:05;;;;;;;6.95;3.95;;;;;;;8.66;100.00;96727.03;1022463;28;20361;-67
2022/10/03 03:19:17;;;;;;;12.13;4.07;;;;;;;8.67;100.00;96725.19;1028839;28;20270;-69
2022/10/03 03:20:03;;;;;;;10.93;4.03;;;;;;;8.66;100.00;96726.22;1010084;29;20679;-68
2022/10/03 03:21:16;;;;;;;11.10;4.13;;;;;;;8.63;100.00;96727.47;1019763;29;20295;-66
2022/10/03 03:22:09;;;;;;;10.38;3.83;;;;;;;8.63;100.00;96726.69;1025663;28;20250;-67
2022/10/03 03:23:02;;;;;;;7.43;3.42;;;;;;;8.62;100.00;96731.13;1030261;28;20266;-67
2022/10/03 03:23:43;;;;;;;12.70;4.75;;;;;;;8.61;100.00;96731.31;1030269;28;20262;-68
2022/10/03 03:24:40;;;;;;;7.68;3.95;;;;;;;8.60;100.00;96733.16;1034360;28;20328;-67
2022/10/03 03:25:21;;;;;;;7.68;3.40;;;;;;;8.60;100.00;96737.59;1031626;28;20103;-67
2022/10/03 03:26:03;;;;;;;6.80;3.88;;;;;;;8.54;100.00;96723.56;1025059;28;20254;-67
2022/10/03 03:27:09;;;;;;;6.88;3.67;;;;;;;8.57;100.00;96733.59;1021811;29;20358;-67
2022/10/03 03:27:42;;;;;;;9.75;4.40;;;;;;;8.56;100.00;96732.00;1018345;29;20272;-67
2022/10/03 03:28:42;;;;;;;6.93;4.43;;;;;;;8.57;100.00;96733.59;1024881;28;20254;-68
2022/10/03 03:29:25;;;;;;;7.68;4.00;;;;;;;8.51;100.00;96724.03;1021113;28;20268;-67
2022/10/03 03:30:05;;;;;;;12.18;4.38;;;;;;;8.49;100.00;96731.31;1034059;28;20304;-67
2022/10/03 03:31:00;;;;;;;6.72;4.00;;;;;;;8.53;100.00;96739.50;1038620;28;20359;-67
2022/10/03 03:31:48;;;;;;;7.85;4.10;;;;;;;8.52;100.00;96741.34;1033347;28;20029;-66
2022/10/03 03:32:46;;;;;;;8.48;4.35;;;;;;;8.49;100.00;96733.94;1020094;28;20310;-66
2022/10/03 03:33:37;;;;;;;9.32;3.72;;;;;;;8.47;100.00;96743.81;1022126;29;20251;-67
2022/10/03 03:34:17;;;;;;;;;;;;;;;8.48;100.00;96745.41;1019921;29;20359;-67
2022/10/03 03:35:13;;;;;;;8.60;3.65;;;;;;;8.44;100.00;96739.81;1016745;29;20393;-67
2022/10/03 03:35:49;;;;;;;6.47;3.55;;;;;;;8.40;100.00;96743.13;1019338;28;20027;-67
2022/10/03 03:36:32;;;;;;;7.32;4.13;;;;;;;8.37;100.00;96736.47;1027124;28;20349;-67
2022/10/03 03:37:10;;;;;;;9.70;4.40;;;;;;;8.35;100.00;96737.72;1031017;28;20352;-67
2022/10/03 03:38:08;;;;;;;6.80;3.67;;;;;;;8.33;100.00;96739.78;1034973;28;20268;-66
2022/10/03 03:38:44;;;;;;;6.88;3.85;;;;;;;8.32;100.00;96741.59;1035051;28;20244;-67
2022/10/03 03:40:01;;;;;;;6.38;3.63;;;;;;;8.26;100.00;96743.28;1031546;28;20261;-68
2022/10/03 03:40:45;;;;;;;6.25;3.05;;;;;;;8.23;100.00;96743.72;1028863;28;20332;-67
2022/10/03 03:41:30;;;;;;;7.88;3.35;;;;;;;8.19;100.00;96745.19;1031068;28;21001;-67
2022/10/03 03:42:28;;;;;;;10.63;3.72;;;;;;;8.15;100.00;96741.41;1030748;28;20257;-67
2022/10/03 03:43:07;;;;;;;5.80;3.42;;;;;;;8.08;100.00;96745.13;1030784;28;20394;-68
2022/10/03 03:43:58;;;;;;;8.00;3.58;;;;;;;8.04;100.00;96748.19;1026715;28;20357;-67
2022/10/03 03:45:02;;;;;;;6.90;3.17;;;;;;;8.00;100.00;96746.22;1021873;29;21039;-67
2022/10/03 03:45:49;;;;;;;7.35;3.38;;;;;;;7.99;100.00;96749.88;1024577;28;20264;-65
2022/10/03 03:46:32;;;;;;;6.47;3.40;;;;;;;7.95;100.00;96751.34;1025240;28;20318;-68
2022/10/03 03:47:29;;;;;;;6.93;3.80;;;;;;;7.91;100.00;96752.78;1022855;29;20778;-66
2022/10/03 03:48:21;;;;;;;12.30;3.97;;;;;;;7.90;100.00;96751.19;1013858;29;20276;-66
2022/10/03 03:49:22;;;;;;;7.00;3.42;;;;;;;7.86;100.00;96748.22;1030289;28;20372;-67
2022/10/03 03:50:05;;;;;;;;;;;;;;;7.82;100.00;96746.28;1029919;28;20375;-68
2022/10/03 03:50:47;;;;;;;6.78;3.10;;;;;;;7.75;100.00;96741.94;1032967;28;19910;-67
2022/10/03 03:51:22;;;;;;;6.13;3.92;;;;;;;7.77;100.00;96747.72;1034650;28;20819;-67
2022/10/03 03:52:23;;;;;;;8.73;4.32;;;;;;;7.75;100.00;96746.34;1034258;28;20275;-67
2022/10/03 03:53:19;;;;;;;6.55;3.38;;;;;;;7.72;100.00;96749.41;1025992;28;20706;-66
2022/10/03 03:53:49;;;;;;;10.95;3.70;;;;;;;7.71;100.00;96743.38;1022047;29;20712;-67